Time;durP1;ratioP1;P1;durP2;ratioP2;P2;SDS_P1;SDS_P2;PMS_P1;PMS_P2;Temp;Humidity;BMP_temperature;BMP_pressure;BME280_temperature;BME280_humidity;BME280_pressure;Samples;Min_cycle;Max_cycle;Signal;HPM_P1;HPM_P2
2021/10/18 00:00:06;;;;;;;;;;;21.10;61.00;;;;;;5075069;28;1396;-70
2021/10/18 00:02:32;;;;;;;;;;;21.10;61.10;;;;;;5090559;28;923;-69
2021/10/18 00:04:57;;;;;;;;;;;21.10;61.10;;;;;;5089937;28;1752;-70
2021/10/18 00:07:23;;;;;;;;;;;21.10;61.10;;;;;;5074788;28;1949;-69
2021/10/18 00:09:48;;;;;;;;;;;21.10;61.10;;;;;;5074848;28;1308;-69
2021/10/18 00:12:14;;;;;;;;;;;21.10;61.10;;;;;;5074730;28;1440;-69
2021/10/18 00:14:39;;;;;;;;;;;21.00;61.10;;;;;;5091158;28;1313;-69
2021/10/18 00:17:04;;;;;;;;;;;21.00;61.10;;;;;;5074692;28;1330;-70
2021/10/18 00:19:30;;;;;;;;;;;21.00;61.10;;;;;;5074803;28;1182;-70
2021/10/18 00:21:55;;;;;;;;;;;21.00;61.20;;;;;;5074809;28;1173;-69
2021/10/18 00:24:21;;;;;;;;;;;21.00;61.20;;;;;;5055870;28;1665;-69
2021/10/18 00:26:46;;;;;;;;;;;21.00;61.30;;;;;;5074609;28;1961;-69
2021/10/18 00:29:12;;;;;;;;;;;21.00;61.30;;;;;;5089808;28;1204;-69
2021/10/18 00:31:37;;;;;;;;;;;21.00;61.20;;;;;;5074835;28;1362;-70
2021/10/18 00:34:02;;;;;;;;;;;21.00;61.20;;;;;;5074346;28;1323;-70
2021/10/18 00:36:28;;;;;;;;;;;21.00;61.20;;;;;;5073537;28;1356;-69
2021/10/18 00:38:53;;;;;;;;;;;21.00;61.20;;;;;;5090012;28;1203;-69
2021/10/18 00:41:19;;;;;;;;;;;21.00;61.30;;;;;;5074695;28;1351;-69
2021/10/18 00:43:46;;;;;;;;;;;21.00;61.30;;;;;;5073537;28;1553;-70
2021/10/18 00:46:13;;;;;;;;;;;21.00;62.10;;;;;;5055681;28;1895;-69
2021/10/18 00:48:38;;;;;;;;;;;21.00;61.40;;;;;;5089992;28;1689;-69
2021/10/18 00:51:03;;;;;;;;;;;21.00;61.40;;;;;;5056143;28;765;-69
2021/10/18 00:53:29;;;;;;;;;;;21.00;61.40;;;;;;5055823;28;1245;-69
2021/10/18 00:55:54;;;;;;;;;;;21.00;61.40;;;;;;5073600;28;1381;-68
2021/10/18 00:58:20;;;;;;;;;;;20.90;61.30;;;;;;5089272;28;1728;-69
2021/10/18 01:00:45;;;;;;;;;;;20.90;61.40;;;;;;5074320;28;1101;-69
2021/10/18 01:03:11;;;;;;;;;;;20.90;61.40;;;;;;5054381;28;1443;-69
2021/10/18 01:05:40;;;;;;;;;;;20.90;61.40;;;;;;5055223;28;1417;-69
2021/10/18 01:08:06;;;;;;;;;;;20.90;61.40;;;;;;5073479;28;1906;-69
2021/10/18 01:10:32;;;;;;;;;;;20.90;61.40;;;;;;5055865;28;966;-70
2021/10/18 01:12:57;;;;;;;;;;;20.90;61.50;;;;;;5075113;28;1405;-69
2021/10/18 01:15:23;;;;;;;;;;;20.90;61.50;;;;;;5072935;28;1374;-69
2021/10/18 01:17:48;;;;;;;;;;;20.90;61.50;;;;;;5073700;28;1243;-70
2021/10/18 01:20:20;;;;;;;;;;;20.90;61.50;;;;;;5073737;28;1052;-69
2021/10/18 01:22:45;;;;;;;;;;;20.90;61.50;;;;;;5055592;28;1807;-69
2021/10/18 01:25:11;;;;;;;;;;;20.90;61.50;;;;;;5072333;28;1384;-69
2021/10/18 01:27:36;;;;;;;;;;;20.90;61.50;;;;;;5072807;28;1930;-69
2021/10/18 01:30:02;;;;;;;;;;;20.90;61.50;;;;;;5055647;28;1209;-69
2021/10/18 01:32:27;;;;;;;;;;;20.90;62.40;;;;;;5073293;28;1227;-69
2021/10/18 01:34:53;;;;;;;;;;;20.90;61.60;;;;;;5072729;28;1246;-69
2021/10/18 01:37:18;;;;;;;;;;;20.90;61.60;;;;;;5072771;28;1484;-68
2021/10/18 01:39:43;;;;;;;;;;;20.90;61.60;;;;;;5073306;28;1220;-69
2021/10/18 01:42:09;;;;;;;;;;;20.90;61.60;;;;;;5072660;28;1394;-69
2021/10/18 01:44:34;;;;;;;;;;;20.90;61.70;;;;;;5072958;28;1391;-69
2021/10/18 01:47:00;;;;;;;;;;;20.90;61.70;;;;;;5073272;28;1987;-69
2021/10/18 01:49:25;;;;;;;;;;;20.90;61.70;;;;;;5073333;28;1147;-69
2021/10/18 01:51:51;;;;;;;;;;;20.90;61.70;;;;;;5072487;28;1030;-69
2021/10/18 01:54:16;;;;;;;;;;;20.90;61.70;;;;;;5072674;28;1701;-69
2021/10/18 01:56:41;;;;;;;;;;;20.90;61.70;;;;;;5072802;28;1514;-69
2021/10/18 01:59:07;;;;;;;;;;;20.90;61.70;;;;;;5055361;28;828;-69
2021/10/18 02:01:32;;;;;;;;;;;20.90;61.80;;;;;;5055069;28;1174;-69
2021/10/18 02:03:58;;;;;;;;;;;20.80;61.70;;;;;;5071778;28;1681;-69
2021/10/18 02:06:23;;;;;;;;;;;20.90;61.80;;;;;;5060963;28;1956;-69
2021/10/18 02:08:49;;;;;;;;;;;20.80;61.80;;;;;;5066279;28;1259;-69
2021/10/18 02:11:14;;;;;;;;;;;20.90;61.80;;;;;;5054445;28;1060;-68
2021/10/18 02:13:39;;;;;;;;;;;20.80;61.80;;;;;;5066957;28;1244;-69
2021/10/18 02:16:05;;;;;;;;;;;20.80;61.80;;;;;;5063045;28;1227;-70
2021/10/18 02:18:30;;;;;;;;;;;20.80;61.80;;;;;;5066018;28;1318;-69
2021/10/18 02:20:59;;;;;;;;;;;20.80;61.80;;;;;;5065003;28;1379;-67
2021/10/18 02:23:26;;;;;;;;;;;20.80;61.80;;;;;;5066305;28;1472;-69
2021/10/18 02:25:51;;;;;;;;;;;20.80;61.90;;;;;;5066548;28;1299;-69
2021/10/18 02:28:17;;;;;;;;;;;20.80;61.80;;;;;;5067407;28;1898;-68
2021/10/18 02:30:42;;;;;;;;;;;20.80;61.90;;;;;;5067715;28;1283;-68
2021/10/18 02:33:08;;;;;;;;;;;20.80;61.90;;;;;;5046539;28;1296;-68
2021/10/18 02:35:33;;;;;;;;;;;20.80;62.10;;;;;;5064729;28;1409;-68
2021/10/18 02:37:58;;;;;;;;;;;20.80;61.90;;;;;;5066803;28;1220;-68
2021/10/18 02:40:24;;;;;;;;;;;20.80;61.90;;;;;;5049167;28;1398;-69
2021/10/18 02:42:50;;;;;;;;;;;20.80;61.90;;;;;;5079592;28;1215;-68
2021/10/18 02:45:15;;;;;;;;;;;20.80;62.00;;;;;;5040939;28;1402;-66
2021/10/18 02:47:41;;;;;;;;;;;20.80;62.00;;;;;;5045160;28;1909;-66
2021/10/18 02:50:06;;;;;;;;;;;20.80;62.00;;;;;;5029214;28;1462;-68
2021/10/18 02:52:32;;;;;;;;;;;20.80;62.00;;;;;;5046137;28;1176;-68
2021/10/18 02:54:57;;;;;;;;;;;20.80;62.00;;;;;;5047284;28;1276;-68
2021/10/18 02:57:22;;;;;;;;;;;20.80;62.00;;;;;;5066719;28;1255;-67
2021/10/18 02:59:48;;;;;;;;;;;20.80;62.00;;;;;;5064942;28;1212;-68
2021/10/18 03:02:15;;;;;;;;;;;20.80;62.00;;;;;;5046452;28;1282;-68
2021/10/18 03:04:40;;;;;;;;;;;20.80;62.00;;;;;;5065228;28;1278;-67
2021/10/18 03:07:06;;;;;;;;;;;20.80;62.10;;;;;;5067429;28;1955;-68
2021/10/18 03:09:31;;;;;;;;;;;20.80;62.10;;;;;;5048967;28;1165;-68
2021/10/18 03:11:56;;;;;;;;;;;20.80;62.10;;;;;;5063864;28;1298;-68
2021/10/18 03:14:22;;;;;;;;;;;20.80;62.10;;;;;;5072616;28;1580;-67
2021/10/18 03:16:47;;;;;;;;;;;20.80;62.10;;;;;;5071804;28;1462;-68
2021/10/18 03:19:13;;;;;;;;;;;20.80;62.10;;;;;;5071604;28;1441;-68
2021/10/18 03:21:38;;;;;;;;;;;20.80;62.10;;;;;;5072004;28;1079;-68
2021/10/18 03:24:04;;;;;;;;;;;20.80;62.10;;;;;;5072143;28;1383;-69
2021/10/18 03:26:29;;;;;;;;;;;20.80;62.20;;;;;;5087715;28;1919;-68
2021/10/18 03:28:54;;;;;;;;;;;20.80;62.20;;;;;;5071510;28;1629;-67
2021/10/18 03:31:20;;;;;;;;;;;20.70;62.10;;;;;;5071572;28;1406;-68
2021/10/18 03:33:45;;;;;;;;;;;20.70;62.10;;;;;;5056889;28;1356;-68
2021/10/18 03:36:11;;;;;;;;;;;20.70;62.10;;;;;;5074710;28;1421;-68
2021/10/18 03:38:37;;;;;;;;;;;20.70;62.10;;;;;;5075699;28;1647;-68
2021/10/18 03:41:02;;;;;;;;;;;20.80;62.20;;;;;;5091574;28;1222;-68
2021/10/18 03:43:28;;;;;;;;;;;20.80;62.10;;;;;;5090748;28;1201;-68
2021/10/18 03:45:53;;;;;;;;;;;20.80;62.10;;;;;;5090241;28;1844;-68
2021/10/18 03:48:18;;;;;;;;;;;20.80;62.10;;;;;;5075175;28;1909;-68
2021/10/18 03:50:44;;;;;;;;;;;20.80;62.00;;;;;;5090918;28;1717;-68
2021/10/18 03:53:09;;;;;;;;;;;20.80;61.90;;;;;;5075207;28;1405;-67
2021/10/18 03:55:35;;;;;;;;;;;20.80;61.90;;;;;;5074389;28;1723;-68
2021/10/18 03:58:00;;;;;;;;;;;20.80;61.80;;;;;;5057756;28;1362;-69
2021/10/18 04:00:26;;;;;;;;;;;20.90;61.80;;;;;;5090856;28;1345;-69
2021/10/18 04:02:51;;;;;;;;;;;20.90;61.70;;;;;;5056868;28;1402;-69
2021/10/18 04:05:16;;;;;;;;;;;20.90;61.70;;;;;;5074230;28;1794;-68
2021/10/18 04:07:46;;;;;;;;;;;20.90;61.60;;;;;;5074365;28;1890;-68
2021/10/18 04:10:11;;;;;;;;;;;20.90;61.60;;;;;;5075178;28;1453;-69
2021/10/18 04:12:37;;;;;;;;;;;21.00;61.60;;;;;;5092146;28;1639;-69
2021/10/18 04:15:02;;;;;;;;;;;21.00;61.50;;;;;;5074113;28;1700;-68
2021/10/18 04:17:28;;;;;;;;;;;21.00;61.50;;;;;;5074680;28;1649;-68
2021/10/18 04:19:53;;;;;;;;;;;21.00;61.40;;;;;;5074917;28;1675;-68
2021/10/18 04:22:19;;;;;;;;;;;21.00;61.30;;;;;;5075475;28;1393;-68
2021/10/18 04:24:44;;;;;;;;;;;21.00;61.30;;;;;;5074978;28;1432;-68
2021/10/18 04:27:09;;;;;;;;;;;21.00;61.30;;;;;;5075177;28;1961;-68
2021/10/18 04:29:35;;;;;;;;;;;21.00;61.20;;;;;;5091267;28;1448;-68
2021/10/18 04:32:00;;;;;;;;;;;21.00;61.20;;;;;;5076477;28;1187;-67
2021/10/18 04:34:26;;;;;;;;;;;21.00;61.30;;;;;;5075433;28;1468;-68
2021/10/18 04:36:52;;;;;;;;;;;21.00;61.30;;;;;;5093514;28;1221;-68
2021/10/18 04:39:17;;;;;;;;;;;21.10;61.30;;;;;;5077394;28;1496;-68
2021/10/18 04:41:43;;;;;;;;;;;21.10;61.30;;;;;;5078295;28;1404;-68
2021/10/18 04:44:08;;;;;;;;;;;21.10;61.20;;;;;;5092457;22;2137;-67
2021/10/18 04:46:33;;;;;;;;;;;21.00;61.20;;;;;;5073748;28;1949;-66
2021/10/18 04:48:59;;;;;;;;;;;21.10;61.20;;;;;;5073813;28;1407;-66
2021/10/18 04:51:24;;;;;;;;;;;21.10;61.20;;;;;;5074128;28;1680;-66
2021/10/18 04:53:50;;;;;;;;;;;21.10;61.20;;;;;;5056406;28;1417;-67
2021/10/18 04:56:15;;;;;;;;;;;21.10;61.20;;;;;;5062158;28;1397;-67
2021/10/18 04:58:40;;;;;;;;;;;21.10;61.10;;;;;;5054090;28;1490;-67
2021/10/18 05:01:06;;;;;;;;;;;21.10;61.10;;;;;;5035637;28;1405;-67
2021/10/18 05:03:31;;;;;;;;;;;21.10;61.10;;;;;;5053329;28;1367;-67
2021/10/18 05:05:57;;;;;;;;;;;21.10;61.10;;;;;;5053219;28;1378;-68
2021/10/18 05:08:22;;;;;;;;;;;21.10;61.10;;;;;;5041668;28;1962;-67
2021/10/18 05:10:48;;;;;;;;;;;21.10;61.10;;;;;;5074017;28;1363;-68
2021/10/18 05:13:15;;;;;;;;;;;21.10;61.10;;;;;;5066927;28;1426;-68
2021/10/18 05:15:40;;;;;;;;;;;21.10;61.10;;;;;;5052780;28;1304;-68
2021/10/18 05:18:06;;;;;;;;;;;21.10;61.80;;;;;;5053588;28;1640;-71
2021/10/18 05:20:31;;;;;;;;;;;21.10;61.10;;;;;;5035315;28;1685;-69
2021/10/18 05:22:57;;;;;;;;;;;21.10;61.10;;;;;;5036163;28;1441;-69
2021/10/18 05:25:22;;;;;;;;;;;21.10;61.10;;;;;;5035077;28;1728;-69
2021/10/18 05:27:48;;;;;;;;;;;21.10;61.10;;;;;;5035795;28;1945;-69
2021/10/18 05:30:13;;;;;;;;;;;21.10;61.10;;;;;;5053423;28;1663;-69
2021/10/18 05:32:39;;;;;;;;;;;21.10;61.00;;;;;;5018850;28;1409;-69
2021/10/18 05:35:04;;;;;;;;;;;21.10;61.00;;;;;;5052450;28;1572;-69
2021/10/18 05:37:30;;;;;;;;;;;21.10;61.00;;;;;;5053371;28;1722;-68
2021/10/18 05:39:55;;;;;;;;;;;21.10;61.00;;;;;;5035271;28;1673;-68
2021/10/18 05:42:21;;;;;;;;;;;21.10;61.00;;;;;;5053109;28;1405;-68
2021/10/18 05:44:47;;;;;;;;;;;21.10;61.00;;;;;;5052968;28;1413;-68
2021/10/18 05:47:12;;;;;;;;;;;21.10;61.00;;;;;;5071609;28;1902;-68
2021/10/18 05:49:37;;;;;;;;;;;21.10;61.00;;;;;;5073237;28;1367;-68
2021/10/18 05:52:03;;;;;;;;;;;21.10;61.00;;;;;;5059441;28;1455;-68
2021/10/18 05:54:29;;;;;;;;;;;21.10;61.00;;;;;;5054457;28;1657;-68
2021/10/18 05:56:54;;;;;;;;;;;21.20;61.00;;;;;;5054101;28;1640;-68
2021/10/18 05:59:20;;;;;;;;;;;21.20;61.00;;;;;;5064646;28;1044;-68
2021/10/18 06:01:45;;;;;;;;;;;21.10;61.40;;;;;;5054962;28;1409;-68
2021/10/18 06:04:10;;;;;;;;;;;21.20;61.00;;;;;;5060241;28;1642;-69
2021/10/18 06:06:36;;;;;;;;;;;21.10;61.00;;;;;;5052064;28;1902;-70
2021/10/18 06:09:05;;;;;;;;;;;21.20;60.80;;;;;;5063878;28;1650;-70
2021/10/18 06:11:30;;;;;;;;;;;21.10;60.00;;;;;;5052347;28;2099;-69
2021/10/18 06:13:56;;;;;;;;;;;21.20;59.30;;;;;;5008704;28;2120;-71
2021/10/18 06:16:21;;;;;;;;;;;21.20;59.10;;;;;;5069790;28;1687;-70
2021/10/18 06:18:47;;;;;;;;;;;21.20;59.10;;;;;;5053712;28;1552;-70
2021/10/18 06:21:12;;;;;;;;;;;21.30;59.00;;;;;;5071641;28;1417;-70
2021/10/18 06:23:38;;;;;;;;;;;21.40;58.90;;;;;;5071068;28;1339;-70
2021/10/18 06:26:03;;;;;;;;;;;21.40;58.90;;;;;;5070644;28;1251;-71
2021/10/18 06:28:28;;;;;;;;;;;21.50;59.00;;;;;;5062720;28;1953;-71
2021/10/18 06:30:54;;;;;;;;;;;21.60;58.90;;;;;;5058287;28;1337;-71
2021/10/18 06:33:21;;;;;;;;;;;21.60;58.70;;;;;;5071851;28;1226;-70
2021/10/18 06:35:46;;;;;;;;;;;21.70;58.60;;;;;;5056959;28;1459;-70
2021/10/18 06:38:13;;;;;;;;;;;21.80;58.50;;;;;;5071790;28;1197;-68
2021/10/18 06:40:39;;;;;;;;;;;21.90;58.40;;;;;;5072300;28;979;-69
2021/10/18 06:43:04;;;;;;;;;;;21.90;58.20;;;;;;5072034;28;1585;-69
2021/10/18 06:45:29;;;;;;;;;;;22.00;58.20;;;;;;5071728;28;1648;-69
2021/10/18 06:47:55;;;;;;;;;;;22.10;58.10;;;;;;5071909;28;1938;-69
2021/10/18 06:50:22;;;;;;;;;;;22.10;58.00;;;;;;5054330;28;1640;-67
2021/10/18 06:52:48;;;;;;;;;;;22.10;58.00;;;;;;5052565;28;1633;-68
2021/10/18 06:55:16;;;;;;;;;;;22.20;57.90;;;;;;5069985;28;1512;-69
2021/10/18 06:57:41;;;;;;;;;;;22.20;57.80;;;;;;5072638;28;1068;-68
2021/10/18 07:00:07;;;;;;;;;;;22.20;57.70;;;;;;5072203;28;1604;-68
2021/10/18 07:02:32;;;;;;;;;;;22.30;57.80;;;;;;5061354;28;1138;-68
2021/10/18 07:04:58;;;;;;;;;;;22.30;57.70;;;;;;5056626;28;2270;-68
2021/10/18 07:07:26;;;;;;;;;;;22.30;57.70;;;;;;5067573;28;1898;-68
2021/10/18 07:09:56;;;;;;;;;;;22.30;57.70;;;;;;5076102;28;1458;-68
2021/10/18 07:12:22;;;;;;;;;;;22.30;57.70;;;;;;5059279;28;1387;-67
2021/10/18 07:14:47;;;;;;;;;;;22.30;57.70;;;;;;5071067;28;1252;-68
2021/10/18 07:17:13;;;;;;;;;;;22.30;57.60;;;;;;5067997;28;1360;-68
2021/10/18 07:19:38;;;;;;;;;;;22.30;57.60;;;;;;5071800;28;907;-69
2021/10/18 07:22:04;;;;;;;;;;;22.30;57.60;;;;;;5067228;28;1390;-68
2021/10/18 07:24:29;;;;;;;;;;;22.30;57.70;;;;;;5057894;28;1511;-69
2021/10/18 07:26:54;;;;;;;;;;;22.30;57.70;;;;;;5066931;28;1906;-68
2021/10/18 07:29:21;;;;;;;;;;;22.30;57.70;;;;;;5076137;28;887;-67
2021/10/18 07:31:47;;;;;;;;;;;22.30;57.70;;;;;;5065592;28;852;-67
2021/10/18 07:34:14;;;;;;;;;;;22.30;57.70;;;;;;5055561;28;1286;-68
2021/10/18 07:36:48;;;;;;;;;;;22.30;57.80;;;;;;5065219;28;1441;-67
2021/10/18 07:39:15;;;;;;;;;;;22.30;57.80;;;;;;5062066;28;1151;-68
2021/10/18 07:41:40;;;;;;;;;;;22.30;57.90;;;;;;5058103;28;1636;-68
2021/10/18 07:44:06;;;;;;;;;;;22.30;57.90;;;;;;5075888;28;1389;-67
2021/10/18 07:46:31;;;;;;;;;;;22.30;57.90;;;;;;5063528;28;1910;-67
2021/10/18 07:48:57;;;;;;;;;;;22.30;58.00;;;;;;5055988;28;1579;-67
2021/10/18 07:51:22;;;;;;;;;;;22.20;58.00;;;;;;5055830;28;912;-70
2021/10/18 07:53:47;;;;;;;;;;;22.20;58.00;;;;;;5060845;28;1460;-69
2021/10/18 07:56:13;;;;;;;;;;;22.20;58.10;;;;;;5074525;28;1283;-69
2021/10/18 07:58:38;;;;;;;;;;;22.20;58.10;;;;;;5055927;28;1143;-69
2021/10/18 08:01:04;;;;;;;;;;;22.20;58.20;;;;;;5055591;28;1366;-68
2021/10/18 08:03:29;;;;;;;;;;;22.20;58.20;;;;;;5060714;28;1633;-68
2021/10/18 08:05:55;;;;;;;;;;;22.20;58.20;;;;;;5061675;28;1532;-68
2021/10/18 08:08:21;;;;;;;;;;;22.10;58.20;;;;;;5055727;28;2032;-68
2021/10/18 08:10:48;;;;;;;;;;;22.20;58.30;;;;;;5075336;28;872;-68
2021/10/18 08:13:14;;;;;;;;;;;22.10;58.30;;;;;;5073802;28;1346;-68
2021/10/18 08:15:39;;;;;;;;;;;22.10;58.30;;;;;;5044559;28;1206;-68
2021/10/18 08:18:05;;;;;;;;;;;22.10;58.40;;;;;;5067534;28;1295;-68
2021/10/18 08:20:30;;;;;;;;;;;22.10;58.40;;;;;;5054360;28;1090;-68
2021/10/18 08:22:55;;;;;;;;;;;22.10;58.40;;;;;;5042405;28;1308;-67
2021/10/18 08:25:21;;;;;;;;;;;22.10;58.50;;;;;;5074137;28;1333;-68
2021/10/18 08:27:46;;;;;;;;;;;22.10;58.50;;;;;;5055848;28;1902;-68
2021/10/18 08:30:12;;;;;;;;;;;22.10;58.60;;;;;;5055122;28;1278;-68
2021/10/18 08:32:39;;;;;;;;;;;22.10;58.60;;;;;;5020616;28;1293;-68
2021/10/18 08:35:07;;;;;;;;;;;22.10;58.60;;;;;;5053531;28;1470;-69
2021/10/18 08:40:16;;;;;;;;;;;22.00;58.60;;;;;;5054177;28;1349;-68
2021/10/18 08:42:53;;;;;;;;;;;22.10;58.70;;;;;;5054009;28;1369;-68
2021/10/18 08:45:18;;;;;;;;;;;22.00;58.70;;;;;;5056132;28;1375;-67
2021/10/18 08:47:44;;;;;;;;;;;22.10;58.70;;;;;;5056473;28;1965;-68
2021/10/18 08:50:09;;;;;;;;;;;22.10;58.70;;;;;;5057842;28;1422;-68
2021/10/18 08:52:35;;;;;;;;;;;22.10;58.70;;;;;;5054137;28;1368;-67
2021/10/18 08:55:00;;;;;;;;;;;22.10;58.60;;;;;;5053416;28;1426;-67
2021/10/18 08:57:26;;;;;;;;;;;22.10;58.60;;;;;;5054503;28;1370;-68
2021/10/18 08:59:52;;;;;;;;;;;22.10;58.50;;;;;;5053465;28;1731;-70
2021/10/18 09:02:17;;;;;;;;;;;22.20;58.50;;;;;;5066048;28;1956;-71
2021/10/18 09:04:43;;;;;;;;;;;22.20;58.40;;;;;;5046530;28;2087;-71
2021/10/18 09:07:15;;;;;;;;;;;22.20;58.40;;;;;;5076061;28;2043;-68
2021/10/18 09:09:44;;;;;;;;;;;22.20;58.30;;;;;;5076810;28;1922;-69
2021/10/18 09:12:21;;;;;;;;;;;22.30;58.40;;;;;;5069525;28;1554;-69
2021/10/18 09:14:47;;;;;;;;;;;22.30;58.30;;;;;;5059042;28;1632;-69
2021/10/18 09:17:12;;;;;;;;;;;22.30;58.30;;;;;;5074123;28;1393;-68
2021/10/18 09:19:37;;;;;;;;;;;22.30;58.30;;;;;;5073605;28;1437;-69
2021/10/18 09:22:04;;;;;;;;;;;22.30;58.30;;;;;;5062518;28;1570;-70
2021/10/18 09:24:29;;;;;;;;;;;22.30;58.30;;;;;;5052894;28;1613;-69
2021/10/18 09:26:56;;;;;;;;;;;22.30;58.30;;;;;;5073696;28;1894;-69
2021/10/18 09:29:21;;;;;;;;;;;22.30;58.30;;;;;;5072233;28;1714;-69
2021/10/18 09:31:57;;;;;;;;;;;22.30;58.30;;;;;;5073421;28;1565;-69
2021/10/18 09:34:22;;;;;;;;;;;22.30;58.30;;;;;;5072155;28;1756;-68
2021/10/18 09:36:47;;;;;;;;;;;22.30;58.30;;;;;;5072270;28;1609;-69
2021/10/18 09:39:19;;;;;;;;;;;22.30;58.40;;;;;;5073180;28;1381;-69
2021/10/18 09:41:55;;;;;;;;;;;22.30;58.40;;;;;;5073422;28;1612;-69
2021/10/18 09:44:30;;;;;;;;;;;22.30;58.40;;;;;;5071883;28;1717;-69
2021/10/18 09:47:38;;;;;;;;;;;22.20;58.40;;;;;;5071736;28;1898;-69
2021/10/18 10:53:04;;;;;;;;;;;22.10;58.90;;;;;;5044431;28;1405;-70
2021/10/18 10:55:33;;;;;;;;;;;22.10;59.00;;;;;;5058262;28;1470;-69
2021/10/18 10:57:59;;;;;;;;;;;22.10;59.10;;;;;;5071479;28;1390;-69
2021/10/18 11:00:37;;;;;;;;;;;22.10;59.10;;;;;;5072424;28;1842;-69
2021/10/18 11:03:31;;;;;;;;;;;22.10;59.20;;;;;;5072276;28;1400;-70
2021/10/18 11:06:02;;;;;;;;;;;22.10;59.20;;;;;;5070986;28;1438;-69
2021/10/18 11:08:28;;;;;;;;;;;22.00;59.20;;;;;;5060909;28;1906;-70
2021/10/18 11:10:54;;;;;;;;;;;22.00;59.20;;;;;;5074285;28;1707;-69
2021/10/18 11:13:19;;;;;;;;;;;22.00;59.30;;;;;;5079352;28;1326;-70
2021/10/18 11:15:45;;;;;;;;;;;22.00;59.30;;;;;;5073168;28;1379;-69
2021/10/18 11:18:12;;;;;;;;;;;22.00;59.40;;;;;;5092316;28;1382;-69
2021/10/18 11:20:38;;;;;;;;;;;22.00;59.40;;;;;;5092255;28;1368;-69
2021/10/18 11:23:04;;;;;;;;;;;21.90;59.40;;;;;;5092505;28;1481;-69
2021/10/18 11:25:30;;;;;;;;;;;21.90;59.50;;;;;;5091210;28;1263;-69
2021/10/18 11:27:56;;;;;;;;;;;21.90;59.50;;;;;;5091626;28;1960;-69
2021/10/18 11:30:23;;;;;;;;;;;21.90;60.20;;;;;;5074618;28;1075;-70
2021/10/18 11:32:55;;;;;;;;;;;21.90;59.60;;;;;;5092580;28;1126;-69
2021/10/18 11:35:21;;;;;;;;;;;21.90;59.70;;;;;;5074265;28;1446;-69
2021/10/18 11:37:46;;;;;;;;;;;21.90;59.70;;;;;;5092770;28;1186;-69
2021/10/18 11:40:13;;;;;;;;;;;21.90;59.70;;;;;;5092259;28;1344;-69
2021/10/18 11:42:42;;;;;;;;;;;21.80;59.70;;;;;;5091446;28;1419;-69
2021/10/18 11:45:08;;;;;;;;;;;21.80;59.80;;;;;;5072971;28;1418;-69
2021/10/18 11:47:34;;;;;;;;;;;21.80;59.80;;;;;;5092363;28;1967;-69
2021/10/18 11:50:08;;;;;;;;;;;21.80;59.80;;;;;;5091998;28;1126;-68
2021/10/18 11:52:34;;;;;;;;;;;21.80;59.90;;;;;;5092478;28;1677;-70
2021/10/18 11:55:00;;;;;;;;;;;21.80;59.90;;;;;;5076979;28;1525;-69
2021/10/18 11:57:27;;;;;;;;;;;21.80;59.90;;;;;;5095705;28;1362;-69
2021/10/18 11:59:53;;;;;;;;;;;21.70;60.00;;;;;;5078115;28;1743;-70
2021/10/18 12:02:22;;;;;;;;;;;21.80;60.10;;;;;;5095700;28;1158;-69
2021/10/18 12:04:54;;;;;;;;;;;21.70;60.00;;;;;;5076260;28;1278;-69
2021/10/18 12:07:36;;;;;;;;;;;21.70;60.10;;;;;;5095460;28;1902;-70
2021/10/18 12:10:15;;;;;;;;;;;21.70;60.10;;;;;;5095646;28;1590;-68
2021/10/18 12:12:58;;;;;;;;;;;21.70;60.20;;;;;;5092595;28;1400;-70
2021/10/18 12:15:23;;;;;;;;;;;21.70;60.20;;;;;;5066457;28;1324;-69
2021/10/18 12:17:48;;;;;;;;;;;21.60;60.20;;;;;;5057583;28;1515;-69
2021/10/18 12:20:14;;;;;;;;;;;21.60;60.30;;;;;;5067488;28;1178;-69
2021/10/18 12:22:58;;;;;;;;;;;21.60;60.30;;;;;;5074273;28;1505;-69
2021/10/18 12:25:23;;;;;;;;;;;21.60;60.40;;;;;;5074099;28;1372;-69
2021/10/18 12:27:49;;;;;;;;;;;21.60;60.40;;;;;;5058529;28;1902;-69
2021/10/18 12:30:33;;;;;;;;;;;21.60;60.50;;;;;;5056731;28;1422;-69
2021/10/18 12:33:07;;;;;;;;;;;21.60;60.50;;;;;;5074708;28;1389;-70
2021/10/18 12:35:33;;;;;;;;;;;21.50;60.50;;;;;;5075645;28;1927;-69
2021/10/18 12:37:58;;;;;;;;;;;21.60;60.70;;;;;;5084651;28;1430;-70
2021/10/18 12:40:24;;;;;;;;;;;21.50;60.60;;;;;;5093451;28;1356;-68
2021/10/18 12:42:49;;;;;;;;;;;21.50;60.70;;;;;;5094751;28;1043;-69
2021/10/18 12:45:15;;;;;;;;;;;21.50;60.70;;;;;;5091849;28;1657;-69
2021/10/18 12:47:51;;;;;;;;;;;21.50;60.80;;;;;;5073972;28;1906;-69
2021/10/18 12:50:19;;;;;;;;;;;21.50;60.80;;;;;;5060002;28;1606;-69
2021/10/18 12:52:51;;;;;;;;;;;21.50;60.80;;;;;;5075051;28;1157;-69
2021/10/18 12:55:16;;;;;;;;;;;21.50;60.90;;;;;;5062148;28;1209;-73
2021/10/18 12:57:48;;;;;;;;;;;21.50;60.90;;;;;;5094472;28;1174;-73
2021/10/18 13:00:15;;;;;;;;;;;21.40;61.00;;;;;;5059850;28;1356;-73
2021/10/18 13:02:46;;;;;;;;;;;21.40;61.10;;;;;;5064407;28;1173;-73
2021/10/18 13:05:11;;;;;;;;;;;21.40;60.50;;;;;;5072424;28;1813;-73
2021/10/18 13:07:38;;;;;;;;;;;21.40;60.80;;;;;;5094441;28;1927;-73
2021/10/18 13:10:04;;;;;;;;;;;21.40;60.10;;;;;;5088067;28;808;-72
2021/10/18 13:12:29;;;;;;;;;;;21.40;59.10;;;;;;5085891;28;1238;-73
2021/10/18 13:14:55;;;;;;;;;;;21.40;58.80;;;;;;5078852;28;1444;-73
2021/10/18 13:17:21;;;;;;;;;;;21.40;59.10;;;;;;5094079;28;1453;-73
2021/10/18 13:19:46;;;;;;;;;;;21.30;58.90;;;;;;5080341;28;1325;-73
2021/10/18 13:22:12;;;;;;;;;;;21.30;59.10;;;;;;5094597;28;1367;-72
2021/10/18 13:24:37;;;;;;;;;;;21.30;59.10;;;;;;5073886;28;1531;-73
2021/10/18 13:27:04;;;;;;;;;;;21.30;58.60;;;;;;5086187;28;1960;-73
2021/10/18 13:29:29;;;;;;;;;;;21.30;59.20;;;;;;5087991;28;1737;-72
2021/10/18 13:31:55;;;;;;;;;;;21.30;58.30;;;;;;5063187;28;1377;-73
2021/10/18 13:34:20;;;;;;;;;;;21.30;58.00;;;;;;5078408;28;1501;-72
2021/10/18 13:36:46;;;;;;;;;;;21.30;57.80;;;;;;5093641;28;1699;-73
2021/10/18 13:39:11;;;;;;;;;;;21.20;57.70;;;;;;5074534;28;1244;-73
2021/10/18 13:41:37;;;;;;;;;;;21.20;57.50;;;;;;5084784;28;1497;-73
2021/10/18 13:44:05;;;;;;;;;;;21.20;57.70;;;;;;5079868;28;820;-73
2021/10/18 13:46:30;;;;;;;;;;;21.20;57.10;;;;;;5092422;28;1354;-73
2021/10/18 13:48:56;;;;;;;;;;;21.20;56.90;;;;;;5079799;28;1965;-72
2021/10/18 13:51:22;;;;;;;;;;;21.20;56.40;;;;;;5093569;28;1246;-73
2021/10/18 13:53:48;;;;;;;;;;;21.20;56.30;;;;;;5093413;28;1426;-73
2021/10/18 13:56:13;;;;;;;;;;;21.20;56.40;;;;;;5079951;28;1309;-73
2021/10/18 13:58:39;;;;;;;;;;;21.20;56.40;;;;;;5087129;28;1225;-73
2021/10/18 14:01:05;;;;;;;;;;;21.20;56.10;;;;;;5085527;28;988;-73
2021/10/18 14:03:30;;;;;;;;;;;21.10;56.20;;;;;;5093092;28;1670;-73
2021/10/18 14:05:56;;;;;;;;;;;21.10;56.00;;;;;;5092015;28;1477;-73
2021/10/18 14:08:21;;;;;;;;;;;21.10;55.70;;;;;;5092804;28;1894;-73
2021/10/18 14:10:47;;;;;;;;;;;21.10;56.10;;;;;;5071473;28;1658;-73
2021/10/18 14:13:13;;;;;;;;;;;21.10;56.00;;;;;;5073591;28;1158;-72
2021/10/18 14:15:38;;;;;;;;;;;21.10;56.10;;;;;;5056553;28;1270;-73
2021/10/18 14:18:04;;;;;;;;;;;21.10;56.00;;;;;;5073982;28;1420;-73
2021/10/18 14:20:29;;;;;;;;;;;21.10;55.90;;;;;;5063492;28;1432;-73
2021/10/18 14:22:55;;;;;;;;;;;21.10;55.90;;;;;;5069957;28;1693;-73
2021/10/18 14:25:20;;;;;;;;;;;21.10;55.90;;;;;;5071497;28;1452;-73
2021/10/18 14:27:46;;;;;;;;;;;21.00;55.70;;;;;;5072807;28;1973;-73
2021/10/18 14:30:12;;;;;;;;;;;21.00;55.40;;;;;;5063716;28;1699;-73
2021/10/18 14:32:37;;;;;;;;;;;21.00;55.50;;;;;;5072486;28;1466;-72
2021/10/18 14:35:03;;;;;;;;;;;21.00;55.40;;;;;;5071837;28;1416;-73
2021/10/18 14:37:28;;;;;;;;;;;21.00;55.10;;;;;;5054293;28;1414;-73
2021/10/18 14:39:53;;;;;;;;;;;21.00;55.70;;;;;;5063855;28;1435;-73
2021/10/18 14:42:19;;;;;;;;;;;21.00;56.00;;;;;;5072625;28;1185;-72
2021/10/18 14:44:45;;;;;;;;;;;21.00;55.90;;;;;;5071358;28;1436;-72
2021/10/18 14:47:11;;;;;;;;;;;21.00;55.50;;;;;;5070825;28;1906;-72
2021/10/18 14:49:36;;;;;;;;;;;21.00;54.80;;;;;;5072236;28;1364;-69
2021/10/18 14:52:02;;;;;;;;;;;21.00;54.90;;;;;;5072977;28;1688;-69
2021/10/18 14:54:27;;;;;;;;;;;20.90;54.80;;;;;;5072064;28;1369;-68
2021/10/18 14:56:53;;;;;;;;;;;20.90;55.10;;;;;;5071012;28;1633;-69
2021/10/18 14:59:18;;;;;;;;;;;21.00;55.20;;;;;;5077397;28;1500;-68
2021/10/18 15:01:44;;;;;;;;;;;21.00;55.10;;;;;;5081683;28;1207;-68
2021/10/18 15:04:09;;;;;;;;;;;21.00;55.70;;;;;;5074852;28;1203;-69
2021/10/18 15:06:36;;;;;;;;;;;20.90;55.30;;;;;;5076713;28;1271;-68
2021/10/18 15:09:03;;;;;;;;;;;20.90;55.40;;;;;;5080056;28;1902;-67
2021/10/18 15:11:29;;;;;;;;;;;21.00;55.90;;;;;;5079653;28;1196;-67
2021/10/18 15:13:54;;;;;;;;;;;20.90;56.10;;;;;;5079933;28;1187;-68
2021/10/18 15:16:19;;;;;;;;;;;20.90;56.30;;;;;;5091248;28;1295;-68
2021/10/18 15:18:45;;;;;;;;;;;20.90;56.40;;;;;;5092346;28;1280;-68
2021/10/18 15:21:13;;;;;;;;;;;20.90;56.60;;;;;;5092414;28;1419;-68
2021/10/18 15:23:39;;;;;;;;;;;20.90;56.90;;;;;;5074782;28;1282;-68
2021/10/18 15:26:04;;;;;;;;;;;21.00;56.90;;;;;;5091287;28;1343;-68
2021/10/18 15:28:30;;;;;;;;;;;21.00;56.80;;;;;;5075844;28;1910;-68
2021/10/18 15:30:55;;;;;;;;;;;21.00;56.90;;;;;;5096276;28;1264;-68